Time;durP1;ratioP1;P1;durP2;ratioP2;P2;SDS_P1;SDS_P2;PMS_P1;PMS_P2;Temp;Humidity;BMP_temperature;BMP_pressure;BME280_temperature;BME280_humidity;BME280_pressure;Samples;Min_cycle;Max_cycle;Signal;HPM_P1;HPM_P2
2021/01/20 00:01:13;;;;;;;12.18;10.40;;;;;;;6.90;94.59;100204.00;4930341;29;20063;-76
2021/01/20 00:03:38;;;;;;;12.13;9.93;;;;;;;6.92;94.69;100209.09;4916160;29;20039;-77
2021/01/20 00:06:05;;;;;;;12.80;10.00;;;;;;;6.88;94.82;100205.09;4892857;29;20076;-76
2021/01/20 00:08:30;;;;;;;11.43;10.15;;;;;;;6.78;94.84;100199.84;4926158;29;20015;-76
2021/01/20 00:10:56;;;;;;;13.00;10.82;;;;;;;6.80;95.43;100195.34;4926549;29;20373;-75
2021/01/20 00:13:21;;;;;;;14.13;11.07;;;;;;;6.78;94.60;100200.69;4945690;28;20505;-76
2021/01/20 00:15:47;;;;;;;12.82;10.30;;;;;;;6.78;94.79;100202.47;4901805;29;20036;-76
2021/01/20 00:18:13;;;;;;;14.65;11.57;;;;;;;6.79;93.94;100193.69;4934091;29;20039;-74
2021/01/20 00:20:38;;;;;;;13.52;10.35;;;;;;;6.83;94.01;100195.06;4929986;29;20035;-76
2021/01/20 00:23:04;;;;;;;15.77;11.15;;;;;;;6.75;93.95;100193.16;4936769;29;20047;-75
2021/01/20 00:25:29;;;;;;;14.43;11.80;;;;;;;6.73;94.14;100199.47;4906875;29;20053;-76
2021/01/20 00:27:55;;;;;;;13.27;11.65;;;;;;;6.67;94.50;100195.59;4917655;29;20502;-76
2021/01/20 00:30:22;;;;;;;14.43;11.85;;;;;;;6.62;94.65;100198.59;4931925;29;20076;-76
2021/01/20 00:32:48;;;;;;;15.48;12.35;;;;;;;6.61;94.38;100188.31;4927658;29;20502;-76
2021/01/20 00:35:13;;;;;;;16.17;12.25;;;;;;;6.67;94.23;100187.78;4949796;29;20035;-76
2021/01/20 00:37:39;;;;;;;14.63;11.93;;;;;;;6.62;93.72;100190.78;4950299;28;20035;-78
2021/01/20 00:40:06;;;;;;;16.42;11.55;;;;;;;6.62;93.50;100189.97;4926307;29;20036;-76
2021/01/20 00:42:33;;;;;;;14.98;11.60;;;;;;;6.55;93.03;100188.84;4932730;29;20032;-76
2021/01/20 00:45:00;;;;;;;16.10;11.82;;;;;;;6.54;93.92;100195.03;4914717;29;20032;-78
2021/01/20 00:47:27;;;;;;;16.70;12.25;;;;;;;6.50;94.22;100199.69;4950025;29;20485;-74
2021/01/20 00:49:52;;;;;;;17.73;13.07;;;;;;;6.47;94.04;100197.34;4944051;28;20119;-76
2021/01/20 00:52:18;;;;;;;17.40;12.63;;;;;;;6.39;94.28;100198.00;4956310;29;20486;-76
2021/01/20 00:54:43;;;;;;;19.27;13.82;;;;;;;6.39;94.47;100199.78;4938741;29;20059;-75
2021/01/20 00:57:10;;;;;;;19.00;14.30;;;;;;;6.29;94.99;100198.91;4919741;29;20040;-75
2021/01/20 00:59:36;;;;;;;19.17;14.00;;;;;;;6.29;94.75;100193.72;4907536;29;20043;-77
2021/01/20 01:02:01;;;;;;;21.52;14.48;;;;;;;6.20;94.87;100190.94;4922479;29;20509;-77
2021/01/20 01:04:34;;;;;;;21.83;15.93;;;;;;;6.15;94.80;100197.50;4927010;29;20062;-78
2021/01/20 01:06:59;;;;;;;23.08;15.50;;;;;;;6.12;94.20;100187.34;4920956;29;20474;-76
2021/01/20 01:09:25;;;;;;;22.95;16.33;;;;;;;6.12;93.52;100193.41;4929465;29;20040;-76
2021/01/20 01:11:50;;;;;;;22.75;15.32;;;;;;;6.13;93.55;100189.00;4928918;29;20039;-77
2021/01/20 01:14:16;;;;;;;23.40;16.15;;;;;;;6.15;93.55;100193.13;4932434;29;20076;-74
2021/01/20 01:16:47;;;;;;;25.20;15.23;;;;;;;6.12;93.58;100187.34;4919765;29;20060;-76
2021/01/20 01:19:24;;;;;;;24.50;16.35;;;;;;;6.09;94.17;100192.84;4931252;29;20398;-76
2021/01/20 01:21:50;;;;;;;21.77;16.13;;;;;;;6.07;93.29;100187.75;4913341;29;20044;-76
2021/01/20 01:24:16;;;;;;;23.60;16.30;;;;;;;6.11;93.87;100186.53;4922012;29;20150;-75
2021/01/20 01:26:42;;;;;;;24.60;17.52;;;;;;;6.07;93.53;100177.34;4943201;29;20502;-75
2021/01/20 01:29:08;;;;;;;25.77;17.55;;;;;;;6.12;93.17;100182.13;4929052;29;20036;-76
2021/01/20 01:31:44;;;;;;;26.17;17.20;;;;;;;6.09;93.95;100174.59;4923932;29;20035;-76
2021/01/20 01:34:09;;;;;;;26.45;17.85;;;;;;;6.09;92.81;100174.59;4941626;29;20474;-78
2021/01/20 01:36:35;;;;;;;24.98;18.25;;;;;;;6.09;93.10;100177.22;4929848;29;20059;-77
2021/01/20 01:39:15;;;;;;;23.23;17.50;;;;;;;6.00;93.26;100171.00;4918062;29;20036;-77
2021/01/20 01:41:44;;;;;;;26.20;17.35;;;;;;;5.98;92.65;100150.31;4917625;29;20036;-77
2021/01/20 01:44:10;;;;;;;27.48;18.30;;;;;;;6.01;92.69;100151.84;4932517;29;20486;-76
2021/01/20 01:46:45;;;;;;;24.15;18.02;;;;;;;6.04;93.01;100164.56;4937268;29;20023;-76
2021/01/20 01:49:38;;;;;;;24.45;18.17;;;;;;;6.00;92.41;100151.00;4931174;29;20528;-76
2021/01/20 01:52:05;;;;;;;27.73;18.05;;;;;;;5.98;92.59;100150.31;4945132;29;20024;-76
2021/01/20 01:54:54;;;;;;;24.00;19.05;;;;;;;5.93;92.38;100151.63;4919608;29;20406;-77
2021/01/20 01:57:42;;;;;;;31.25;19.75;;;;;;;5.90;92.68;100150.09;4938253;29;20063;-77
2021/01/20 02:00:10;;;;;;;27.75;20.10;;;;;;;5.89;92.69;100148.44;4925313;29;20039;-76
2021/01/20 02:02:53;;;;;;;29.40;20.13;;;;;;;5.88;92.68;100157.22;4945823;29;20079;-78
2021/01/20 02:05:23;;;;;;;31.08;21.35;;;;;;;5.83;92.66;100155.00;4930150;29;20088;-76
2021/01/20 02:07:48;;;;;;;31.80;21.80;;;;;;;5.78;92.32;100154.59;4914393;29;20028;-76
2021/01/20 02:10:19;;;;;;;32.35;22.40;;;;;;;5.76;92.43;100151.25;4920685;29;20047;-76
2021/01/20 02:13:06;;;;;;;32.35;22.50;;;;;;;5.77;92.43;100157.31;4925335;29;20036;-74
2021/01/20 02:15:54;;;;;;;34.95;21.98;;;;;;;5.74;92.68;100163.56;4919004;29;20043;-76
2021/01/20 02:18:26;;;;;;;32.33;22.45;;;;;;;5.63;92.55;100148.91;4905524;29;20044;-77
2021/01/20 02:21:16;;;;;;;30.38;21.40;;;;;;;5.71;92.17;100163.00;4918157;29;20043;-75
2021/01/20 02:24:05;;;;;;;31.45;21.58;;;;;;;5.54;92.47;100139.25;4922867;29;20516;-76
2021/01/20 02:27:07;;;;;;;30.38;21.52;;;;;;;5.64;92.95;100154.91;4891843;29;20139;-75
2021/01/20 02:30:08;;;;;;;32.40;21.17;;;;;;;5.62;92.03;100162.03;4926665;29;20043;-76
2021/01/20 02:32:56;;;;;;;32.65;21.48;;;;;;;5.55;92.33;100151.28;4922975;29;20071;-77
2021/01/20 02:35:58;;;;;;;28.52;19.92;;;;;;;5.55;91.94;100147.88;4940365;29;20079;-77
2021/01/20 02:38:26;;;;;;;32.38;21.48;;;;;;;5.46;92.22;100146.84;4927565;29;20023;-76
2021/01/20 02:41:08;;;;;;;31.88;20.85;;;;;;;5.43;92.32;100140.16;4943770;29;20099;-78
2021/01/20 02:43:54;;;;;;;29.55;19.75;;;;;;;5.42;92.15;100140.28;4949378;28;20082;-76
2021/01/20 02:46:39;;;;;;;30.00;19.65;;;;;;;5.44;91.87;100149.59;4936600;29;20047;-77
2021/01/20 02:49:12;;;;;;;26.83;19.63;;;;;;;5.43;91.18;100149.72;4905794;29;20039;-77
2021/01/20 02:51:44;;;;;;;33.95;19.70;;;;;;;5.47;92.02;100156.31;4942269;29;20035;-76
2021/01/20 02:54:31;;;;;;;33.35;18.98;;;;;;;5.35;91.80;100147.78;4938680;29;20089;-76
2021/01/20 02:57:16;;;;;;;31.20;19.17;;;;;;;5.37;91.67;100135.47;4942710;29;20035;-77
2021/01/20 02:59:54;;;;;;;32.42;18.92;;;;;;;5.35;91.35;100141.72;4922234;29;20482;-76
2021/01/20 03:02:37;;;;;;;33.72;19.13;;;;;;;5.34;91.29;100156.50;4920363;29;20063;-79
2021/01/20 03:05:03;;;;;;;29.92;18.15;;;;;;;5.33;90.96;100138.44;4945911;28;20036;-77
2021/01/20 03:07:30;;;;;;;33.35;18.45;;;;;;;5.34;90.58;100142.69;4951958;29;20553;-76
2021/01/20 03:09:57;;;;;;;33.33;16.90;;;;;;;5.29;90.90;100137.03;4937454;29;20110;-77
2021/01/20 03:12:30;;;;;;;31.30;17.17;;;;;;;5.30;90.48;100134.31;4937028;29;20027;-76
2021/01/20 03:14:57;;;;;;;31.10;16.80;;;;;;;5.27;90.50;100121.56;4950340;28;20074;-77
2021/01/20 03:17:29;;;;;;;27.10;15.63;;;;;;;5.37;90.27;100143.25;4918797;29;20410;-76
2021/01/20 03:19:54;;;;;;;30.42;16.20;;;;;;;5.30;90.19;100139.53;4915799;29;20042;-77
2021/01/20 03:22:20;;;;;;;26.90;15.40;;;;;;;5.36;90.11;100130.38;4929732;29;20036;-76
2021/01/20 03:24:45;;;;;;;27.23;16.23;;;;;;;5.25;90.26;100119.13;4920094;29;20489;-76
2021/01/20 03:27:11;;;;;;;28.48;15.00;;;;;;;5.35;90.02;100120.91;4937106;29;20717;-76
2021/01/20 03:29:36;;;;;;;26.42;15.25;;;;;;;5.31;90.01;100122.13;4964622;28;20067;-76
2021/01/20 03:32:02;;;;;;;28.17;15.48;;;;;;;5.26;90.37;100131.16;4936846;29;20039;-77
2021/01/20 03:34:28;;;;;;;27.33;15.05;;;;;;;5.25;90.06;100121.72;4951424;28;20031;-76
2021/01/20 03:36:53;;;;;;;28.88;14.88;;;;;;;5.29;90.33;100129.25;4926585;29;20046;-75
2021/01/20 03:39:19;;;;;;;23.55;14.32;;;;;;;5.17;90.64;100107.69;4935785;29;20050;-76
2021/01/20 03:41:44;;;;;;;29.73;15.18;;;;;;;5.22;90.54;100116.75;4935874;29;20071;-76
2021/01/20 03:44:10;;;;;;;27.13;14.52;;;;;;;5.14;90.43;100094.94;4937065;29;20517;-76
2021/01/20 03:46:35;;;;;;;24.65;15.07;;;;;;;5.17;91.15;100113.69;4920755;29;20044;-76
2021/01/20 03:49:01;;;;;;;26.70;14.43;;;;;;;5.14;90.82;100105.31;4936046;29;20044;-75
2021/01/20 03:51:29;;;;;;;24.45;14.27;;;;;;;5.20;90.36;100091.84;4949742;28;20493;-78
2021/01/20 03:53:55;;;;;;;24.48;14.48;;;;;;;5.16;90.15;100091.28;4936863;29;20039;-76
2021/01/20 03:56:21;;;;;;;24.92;14.45;;;;;;;5.23;90.11;100104.56;4940492;29;20044;-76
2021/01/20 03:58:47;;;;;;;22.77;14.02;;;;;;;5.20;90.35;100099.66;4932838;29;20087;-76
2021/01/20 04:01:12;;;;;;;20.70;14.02;;;;;;;5.16;90.17;100083.47;4927654;29;20091;-75
2021/01/20 04:03:38;;;;;;;22.23;14.52;;;;;;;5.15;90.02;100074.00;4933033;29;20385;-76
2021/01/20 04:06:16;;;;;;;24.13;14.48;;;;;;;5.17;90.14;100079.09;4936391;29;20119;-76
2021/01/20 04:08:41;;;;;;;22.85;14.18;;;;;;;5.08;90.03;100072.88;4921536;29;20055;-78
2021/01/20 04:11:07;;;;;;;25.63;15.23;;;;;;;5.12;90.11;100076.03;4920547;29;20035;-77
2021/01/20 04:13:35;;;;;;;28.85;16.10;;;;;;;5.05;91.25;100076.56;4907645;29;20363;-77
2021/01/20 04:16:02;;;;;;;22.17;14.90;;;;;;;5.04;91.54;100077.50;4925856;29;20047;-77
2021/01/20 04:18:28;;;;;;;31.30;16.52;;;;;;;5.12;91.55;100086.44;4901003;29;20047;-77
2021/01/20 04:20:54;;;;;;;28.52;17.20;;;;;;;5.01;91.82;100069.13;4927936;29;20123;-77
2021/01/20 04:23:19;;;;;;;26.80;16.08;;;;;;;5.00;91.77;100077.88;4937247;29;20042;-78
2021/01/20 04:25:46;;;;;;;32.55;16.40;;;;;;;4.98;91.64;100082.38;4901585;29;20036;-75
2021/01/20 04:28:12;;;;;;;23.92;15.95;;;;;;;4.97;91.59;100067.72;4933446;29;20472;-75
2021/01/20 04:30:37;;;;;;;25.80;16.08;;;;;;;4.93;92.03;100069.75;4926904;29;20063;-76
2021/01/20 04:33:03;;;;;;;25.42;16.05;;;;;;;4.96;92.16;100073.91;4917113;29;20048;-76
2021/01/20 04:35:28;;;;;;;28.55;15.10;;;;;;;4.97;91.39;100072.94;4934741;29;20052;-78
2021/01/20 04:37:54;;;;;;;24.27;14.93;;;;;;;4.94;91.59;100071.41;4913230;29;20145;-76
2021/01/20 04:40:20;;;;;;;25.48;15.50;;;;;;;4.92;91.59;100064.72;4920518;29;20039;-75
2021/01/20 04:42:46;;;;;;;21.15;14.82;;;;;;;5.02;91.92;100076.78;4913898;29;20040;-76
2021/01/20 04:45:11;;;;;;;23.42;14.85;;;;;;;4.90;91.48;100066.59;4909683;29;20497;-76
2021/01/20 04:47:39;;;;;;;21.55;14.63;;;;;;;4.89;91.67;100063.16;4922744;29;20067;-76
2021/01/20 04:50:06;;;;;;;17.65;12.40;;;;;;;4.99;90.52;100063.22;4938483;29;20042;-75
2021/01/20 04:52:33;;;;;;;24.00;13.68;;;;;;;4.94;90.44;100057.59;4916635;29;20540;-75
2021/01/20 04:55:00;;;;;;;22.67;12.90;;;;;;;4.95;90.75;100067.03;4918888;29;20032;-76
2021/01/20 04:57:28;;;;;;;19.38;12.50;;;;;;;4.94;90.58;100055.81;4929308;29;20040;-76
2021/01/20 04:59:54;;;;;;;25.35;12.80;;;;;;;4.89;90.35;100047.56;4919745;29;20031;-76
2021/01/20 05:02:22;;;;;;;25.83;12.63;;;;;;;4.88;90.34;100048.53;4935402;29;20031;-76
2021/01/20 05:04:51;;;;;;;19.65;11.63;;;;;;;4.90;90.21;100051.00;4913434;29;20513;-79
2021/01/20 05:07:17;;;;;;;19.45;11.32;;;;;;;4.91;90.09;100043.06;4952423;29;20034;-75
2021/01/20 05:09:43;;;;;;;21.00;12.18;;;;;;;4.88;90.48;100044.16;4939263;29;20090;-77
2021/01/20 05:12:36;;;;;;;19.48;11.10;;;;;;;4.91;89.98;100040.47;4932969;29;20044;-78
2021/01/20 05:15:05;;;;;;;18.20;10.37;;;;;;;4.90;90.46;100038.84;4933074;29;20048;-76
2021/01/20 05:17:32;;;;;;;18.17;10.63;;;;;;;4.83;89.85;100022.91;4904317;29;20040;-76
2021/01/20 05:19:58;;;;;;;22.73;10.20;;;;;;;4.83;89.83;100024.69;4907399;29;20043;-75
2021/01/20 05:22:24;;;;;;;21.27;9.98;;;;;;;4.89;89.53;100029.38;4935557;29;20044;-76
2021/01/20 05:25:03;;;;;;;15.90;9.70;;;;;;;4.91;89.12;100030.06;4952685;28;20039;-76
2021/01/20 05:27:31;;;;;;;16.50;8.98;;;;;;;4.92;89.93;100028.31;4900661;29;20043;-76
2021/01/20 05:30:02;;;;;;;15.80;9.02;;;;;;;4.92;88.94;100036.94;4919265;29;20048;-76
2021/01/20 05:32:28;;;;;;;16.53;9.30;;;;;;;4.88;89.51;100030.34;4919933;29;20525;-76
2021/01/20 05:35:07;;;;;;;20.05;10.25;;;;;;;4.84;89.68;100023.75;4937651;29;20040;-77
2021/01/20 05:37:46;;;;;;;15.50;9.50;;;;;;;4.91;89.98;100034.47;4923589;29;20051;-76
2021/01/20 05:40:17;;;;;;;17.35;9.75;;;;;;;4.73;90.68;100016.00;4916066;29;20091;-76
2021/01/20 05:42:51;;;;;;;16.58;9.00;;;;;;;4.75;90.34;100012.34;4923186;29;20036;-76
2021/01/20 05:45:22;;;;;;;16.52;9.63;;;;;;;4.74;90.19;100018.47;4938708;29;20035;-76
2021/01/20 05:48:01;;;;;;;17.92;9.52;;;;;;;4.80;90.29;100019.75;4939966;29;20064;-76
2021/01/20 05:50:27;;;;;;;15.63;9.32;;;;;;;4.73;90.32;100005.63;4919806;29;20043;-77
2021/01/20 05:53:04;;;;;;;18.42;9.18;;;;;;;4.76;90.74;100021.78;4920829;29;20111;-76
2021/01/20 05:55:30;;;;;;;16.83;8.88;;;;;;;4.65;91.51;100017.47;4924250;29;20040;-75
2021/01/20 05:57:57;;;;;;;17.35;8.63;;;;;;;4.65;91.51;100009.69;4920829;29;20187;-76
2021/01/20 06:00:23;;;;;;;16.92;8.40;;;;;;;4.67;91.13;100017.34;4922966;29;20035;-76
2021/01/20 06:02:55;;;;;;;15.65;8.13;;;;;;;4.67;90.92;100009.53;4922671;29;20442;-76
2021/01/20 06:05:22;;;;;;;;;;;;;;;4.80;91.44;100032.75;4918706;29;20047;-76
2021/01/20 06:07:50;;;;;;;18.23;8.13;;;;;;;4.74;90.75;100012.47;4923896;29;19915;-75
2021/01/20 06:10:16;;;;;;;16.75;8.27;;;;;;;4.67;90.54;100010.38;4923367;29;20114;-77
2021/01/20 06:12:42;;;;;;;12.88;7.40;;;;;;;4.71;90.68;100020.50;4933479;29;20032;-78
2021/01/20 06:15:08;;;;;;;17.27;7.97;;;;;;;4.63;91.20;100010.75;4959327;28;20035;-76
2021/01/20 06:17:39;;;;;;;15.43;8.00;;;;;;;4.75;91.20;100030.53;4919197;29;20581;-77
2021/01/20 06:20:07;;;;;;;17.88;8.10;;;;;;;4.63;91.75;100009.00;4924501;29;20040;-77
2021/01/20 06:22:34;;;;;;;14.98;8.40;;;;;;;4.62;91.17;99998.72;4903607;29;20079;-78
2021/01/20 06:25:13;;;;;;;19.45;7.97;;;;;;;4.71;91.53;100012.72;4920407;29;20040;-76
2021/01/20 06:27:45;;;;;;;15.57;7.65;;;;;;;4.70;91.22;100013.69;4938279;29;20046;-77
2021/01/20 06:30:12;;;;;;;13.73;7.43;;;;;;;4.74;91.32;100013.28;4942250;29;20062;-75
2021/01/20 06:32:42;;;;;;;18.13;8.32;;;;;;;4.65;91.31;100009.69;4940610;29;20491;-77
2021/01/20 06:35:09;;;;;;;16.80;7.93;;;;;;;4.57;91.49;99999.09;4936421;29;20111;-78
2021/01/20 06:37:40;;;;;;;17.67;7.72;;;;;;;4.66;91.59;100007.91;4917953;29;20050;-78
2021/01/20 06:40:34;;;;;;;14.88;8.18;;;;;;;4.63;92.18;99996.00;4921832;29;20044;-76
2021/01/20 06:43:00;;;;;;;16.52;7.95;;;;;;;4.58;91.80;100003.34;4919095;29;20044;-77
2021/01/20 06:45:26;;;;;;;15.20;8.13;;;;;;;4.53;92.08;99999.47;4902143;29;20073;-78
2021/01/20 06:47:58;;;;;;;15.60;8.02;;;;;;;4.66;92.57;100018.31;4933974;29;20038;-75
2021/01/20 06:50:30;;;;;;;15.00;7.95;;;;;;;4.62;92.46;100009.13;4948004;29;20448;-76
2021/01/20 06:53:06;;;;;;;13.70;7.28;;;;;;;4.54;92.27;100006.31;4924311;29;20046;-76
2021/01/20 06:55:36;;;;;;;14.88;7.53;;;;;;;4.55;92.22;100006.19;4924284;29;20082;-77
2021/01/20 06:58:24;;;;;;;15.70;7.57;;;;;;;4.72;91.57;100022.16;4929590;29;20086;-76
2021/01/20 07:00:58;;;;;;;13.75;7.28;;;;;;;4.77;91.25;100017.44;4937369;29;20478;-76
2021/01/20 07:03:53;;;;;;;13.20;7.28;;;;;;;4.82;91.28;100017.84;4902394;29;20060;-76
2021/01/20 07:06:34;;;;;;;16.65;7.63;;;;;;;4.81;90.88;100011.84;4918388;29;20044;-76
2021/01/20 07:09:08;;;;;;;12.52;7.70;;;;;;;4.83;91.14;100011.72;4902259;29;20474;-76
2021/01/20 07:11:56;;;;;;;15.18;7.55;;;;;;;4.81;90.74;100003.22;4913107;29;20035;-77
2021/01/20 07:14:29;;;;;;;17.35;7.88;;;;;;;4.81;90.95;100003.22;4933846;29;20094;-76
2021/01/20 07:16:55;;;;;;;;;;;;;;;4.81;91.61;99998.84;4927713;29;20469;-76
2021/01/20 07:19:22;;;;;;;12.68;7.07;;;;;;;4.75;91.43;100003.75;4902099;29;19915;-76
2021/01/20 07:21:48;;;;;;;13.60;7.07;;;;;;;4.68;92.10;99999.03;4917580;29;20036;-76
2021/01/20 07:24:14;;;;;;;12.55;7.60;;;;;;;4.72;92.10;99999.59;4886302;29;20054;-76
2021/01/20 07:26:40;;;;;;;19.05;8.02;;;;;;;4.75;91.74;99988.16;4916487;29;20454;-78
2021/01/20 07:29:22;;;;;;;13.15;7.35;;;;;;;4.75;91.67;99983.78;4922004;29;20128;-77
2021/01/20 07:31:49;;;;;;;15.18;7.60;;;;;;;4.80;91.41;99985.97;4972076;28;20075;-76
2021/01/20 07:34:16;;;;;;;10.98;7.00;;;;;;;4.85;91.13;99979.44;4956859;28;20117;-76
2021/01/20 07:36:41;;;;;;;12.38;6.20;;;;;;;4.86;90.76;99975.09;4925203;29;20046;-76
2021/01/20 07:39:23;;;;;;;15.82;7.20;;;;;;;4.89;90.95;99974.81;4923955;29;20039;-76
2021/01/20 07:41:56;;;;;;;10.98;6.45;;;;;;;4.88;90.69;99973.19;4913300;29;20035;-76
2021/01/20 07:44:23;;;;;;;9.77;6.43;;;;;;;4.90;90.31;99968.69;4904126;29;20039;-76
2021/01/20 07:47:01;;;;;;;15.35;6.97;;;;;;;4.97;89.85;99967.22;4936630;29;20039;-76
2021/01/20 07:49:28;;;;;;;12.27;6.13;;;;;;;5.00;90.10;99964.34;4955675;29;20513;-78
2021/01/20 07:52:03;;;;;;;13.75;6.57;;;;;;;5.05;90.24;99969.16;4939945;29;20500;-77
2021/01/20 07:54:38;;;;;;;12.52;7.15;;;;;;;5.09;89.77;99973.16;4921490;29;20059;-77
2021/01/20 07:57:05;;;;;;;12.45;6.20;;;;;;;5.15;89.23;99962.22;4904974;29;20151;-77
2021/01/20 07:59:32;;;;;;;10.52;6.25;;;;;;;5.17;89.76;99970.72;4940580;29;20087;-77
2021/01/20 08:02:15;;;;;;;11.10;5.57;;;;;;;5.19;89.21;99968.81;4938524;29;20505;-76
2021/01/20 08:04:41;;;;;;;10.30;5.82;;;;;;;5.24;88.92;99958.03;4904287;29;20083;-76
2021/01/20 08:07:08;;;;;;;10.80;5.85;;;;;;;5.29;89.39;99962.81;4902665;29;20040;-76
2021/01/20 08:09:45;;;;;;;10.57;5.78;;;;;;;5.27;89.06;99960.34;4929713;29;20032;-78
2021/01/20 08:12:32;;;;;;;9.05;5.88;;;;;;;5.39;88.34;99961.09;4901282;29;20042;-76
2021/01/20 08:15:00;;;;;;;12.20;5.70;;;;;;;5.38;88.43;99969.84;4904995;29;20071;-75
2021/01/20 08:17:26;;;;;;;10.25;5.57;;;;;;;5.35;88.92;99957.94;4950286;29;20039;-77
2021/01/20 08:19:54;;;;;;;10.02;5.25;;;;;;;5.38;88.97;99959.44;4922325;29;20046;-76
2021/01/20 08:22:21;;;;;;;10.43;4.78;;;;;;;5.52;87.61;99959.06;4935169;29;20092;-77
2021/01/20 08:24:48;;;;;;;10.13;4.72;;;;;;;5.62;87.38;99966.91;4916594;29;20423;-78
2021/01/20 08:27:15;;;;;;;14.75;5.00;;;;;;;5.64;87.24;99959.78;4917098;29;20028;-78
2021/01/20 08:29:51;;;;;;;9.27;4.75;;;;;;;5.68;87.36;99963.75;4901120;29;20123;-76
2021/01/20 08:32:17;;;;;;;8.70;4.50;;;;;;;5.72;86.54;99972.13;4900685;29;20462;-76
2021/01/20 08:34:45;;;;;;;7.97;4.65;;;;;;;5.76;86.62;99958.69;4916165;29;20066;-76
2021/01/20 08:37:18;;;;;;;9.32;4.35;;;;;;;5.89;85.36;99960.22;4914247;29;20042;-76
2021/01/20 08:39:58;;;;;;;6.85;3.92;;;;;;;5.90;85.09;99954.88;4957408;28;20027;-77
2021/01/20 08:42:30;;;;;;;8.98;4.20;;;;;;;5.99;84.92;99961.06;4934867;29;20082;-75
2021/01/20 08:45:15;;;;;;;8.32;4.40;;;;;;;6.00;85.03;99967.94;4922517;29;20119;-75
2021/01/20 08:47:47;;;;;;;8.52;4.25;;;;;;;6.04;84.83;99966.69;4922774;29;20038;-77
2021/01/20 08:50:19;;;;;;;12.05;4.28;;;;;;;6.09;84.22;99961.91;4938416;29;20031;-76
2021/01/20 08:52:50;;;;;;;7.10;3.60;;;;;;;6.10;84.31;99957.53;4922020;29;20074;-77
2021/01/20 08:55:32;;;;;;;6.47;3.80;;;;;;;6.09;84.55;99958.50;4941258;29;20032;-76
2021/01/20 08:58:22;;;;;;;9.10;3.90;;;;;;;6.18;83.40;99955.91;4958368;29;20090;-74
2021/01/20 09:00:59;;;;;;;7.07;3.28;;;;;;;6.18;83.96;99961.09;4925698;29;20051;-78
2021/01/20 09:03:26;;;;;;;6.22;4.00;;;;;;;6.21;83.57;99963.41;4958334;28;20059;-76
2021/01/20 09:05:53;;;;;;;8.75;3.75;;;;;;;6.29;82.16;99961.91;4946438;29;20111;-78
2021/01/20 09:08:20;;;;;;;5.93;3.50;;;;;;;6.30;82.70;99961.78;4906397;29;20117;-76
2021/01/20 09:10:47;;;;;;;7.00;3.55;;;;;;;6.29;82.18;99954.94;4904259;29;20405;-77
2021/01/20 09:13:14;;;;;;;11.82;3.85;;;;;;;6.34;81.66;99951.91;4918616;29;20067;-78
2021/01/20 09:15:40;;;;;;;5.63;3.65;;;;;;;6.36;81.43;99960.41;4914608;29;20470;-75
2021/01/20 09:18:06;;;;;;;6.07;3.42;;;;;;;6.36;82.06;99957.78;4914072;29;20071;-74
2021/01/20 09:20:35;;;;;;;5.50;3.58;;;;;;;6.39;81.56;99952.31;4940059;29;20044;-76
2021/01/20 09:23:03;;;;;;;8.43;4.00;;;;;;;6.41;81.63;99956.41;4938052;29;20039;-76
2021/01/20 09:25:29;;;;;;;6.43;3.13;;;;;;;6.44;80.54;99947.50;4972981;28;20090;-75
2021/01/20 09:27:55;;;;;;;6.50;3.30;;;;;;;6.53;80.99;99946.66;4952540;29;20082;-77
2021/01/20 09:30:21;;;;;;;7.45;3.33;;;;;;;6.57;80.32;99955.03;4942726;29;20038;-75
2021/01/20 09:32:47;;;;;;;6.00;3.50;;;;;;;6.54;80.05;99948.31;4941079;29;20031;-75
2021/01/20 09:35:15;;;;;;;7.68;3.30;;;;;;;6.62;79.56;99940.63;4971927;28;20047;-78
2021/01/20 09:37:42;;;;;;;6.40;3.22;;;;;;;6.61;80.41;99946.81;4935063;29;20031;-76
2021/01/20 09:40:10;;;;;;;7.28;3.17;;;;;;;6.69;79.60;99950.50;4924890;29;20039;-76
2021/01/20 09:42:37;;;;;;;6.63;3.33;;;;;;;6.69;80.09;99947.88;4938593;29;20377;-76
2021/01/20 09:45:04;;;;;;;8.63;3.63;;;;;;;6.76;79.25;99948.94;4919444;29;20112;-76
2021/01/20 09:47:30;;;;;;;4.03;2.83;;;;;;;6.80;79.23;99953.75;4905762;29;20118;-76
2021/01/20 09:49:55;;;;;;;4.32;2.67;;;;;;;6.79;79.16;99948.69;4935877;29;20514;-76
2021/01/20 09:52:25;;;;;;;4.55;2.80;;;;;;;6.93;78.81;99947.38;4938265;29;20569;-79
2021/01/20 09:54:54;;;;;;;5.55;2.90;;;;;;;6.91;78.34;99938.88;4937173;29;20050;-79
2021/01/20 09:57:21;;;;;;;7.05;3.33;;;;;;;6.95;77.47;99943.69;4935064;29;20161;-76
2021/01/20 09:59:47;;;;;;;4.55;2.85;;;;;;;7.02;77.33;99936.09;4901782;29;20038;-77
2021/01/20 10:02:13;;;;;;;6.60;3.03;;;;;;;7.04;76.49;99935.97;4939951;29;20417;-74
2021/01/20 10:04:38;;;;;;;3.65;2.70;;;;;;;7.04;77.24;99938.56;4955863;28;20039;-78
2021/01/20 10:07:04;;;;;;;6.80;3.20;;;;;;;7.03;77.05;99940.38;4924536;29;20046;-76
2021/01/20 10:09:29;;;;;;;4.25;2.78;;;;;;;7.03;77.50;99935.16;4947636;29;20040;-77
2021/01/20 10:11:55;;;;;;;5.13;2.83;;;;;;;7.04;77.12;99928.97;4924879;29;20040;-76
2021/01/20 10:14:20;;;;;;;6.13;3.10;;;;;;;7.08;76.47;99926.88;4931194;29;20063;-74
2021/01/20 10:16:46;;;;;;;5.43;2.80;;;;;;;7.14;75.65;99927.16;4932535;29;20054;-76
2021/01/20 10:19:13;;;;;;;6.57;3.00;;;;;;;7.14;77.05;99924.53;4920823;29;20126;-76
2021/01/20 10:21:39;;;;;;;4.15;2.60;;;;;;;7.17;76.31;99916.41;4932271;29;20040;-77
2021/01/20 10:24:05;;;;;;;12.98;2.78;;;;;;;7.21;75.79;99915.19;4952680;28;20042;-76
2021/01/20 10:26:31;;;;;;;4.95;3.00;;;;;;;7.26;75.46;99916.53;4938024;29;20043;-78
2021/01/20 10:28:56;;;;;;;3.85;2.70;;;;;;;7.27;76.04;99912.94;4937734;29;20038;-78
2021/01/20 10:31:22;;;;;;;5.20;2.85;;;;;;;7.25;75.63;99907.03;4926004;29;20099;-77
2021/01/20 10:33:47;;;;;;;5.28;2.83;;;;;;;7.24;75.93;99908.03;4918260;29;20541;-78
2021/01/20 10:36:13;;;;;;;3.80;2.60;;;;;;;7.26;76.18;99909.50;4888559;29;20036;-77
2021/01/20 10:38:39;;;;;;;5.50;2.72;;;;;;;7.27;75.84;99911.16;4935605;29;20118;-78
2021/01/20 10:41:04;;;;;;;6.20;2.60;;;;;;;7.25;76.21;99907.03;4922093;29;20036;-76
2021/01/20 10:43:30;;;;;;;3.40;2.60;;;;;;;7.29;75.75;99905.78;4925549;29;20391;-77
2021/01/20 10:45:58;;;;;;;4.20;2.40;;;;;;;7.32;75.46;99900.28;4899414;29;20798;-78
2021/01/20 10:48:24;;;;;;;5.05;2.25;;;;;;;7.30;75.60;99903.03;4930004;29;20067;-77
2021/01/20 10:50:50;;;;;;;3.53;2.40;;;;;;;7.31;75.50;99894.25;4917056;29;20051;-77
2021/01/20 10:53:16;;;;;;;4.22;2.33;;;;;;;7.32;74.89;99895.06;4954065;29;20030;-78
2021/01/20 10:55:41;;;;;;;3.05;2.20;;;;;;;7.35;75.35;99892.19;4953108;28;20101;-76
2021/01/20 10:58:07;;;;;;;5.75;2.78;;;;;;;7.36;75.78;99901.63;4901335;29;20043;-76
2021/01/20 11:00:32;;;;;;;4.15;2.70;;;;;;;7.36;76.46;99894.63;4933928;29;20505;-77
2021/01/20 11:02:58;;;;;;;8.25;2.40;;;;;;;7.40;75.42;99893.38;4928985;29;20099;-77
2021/01/20 11:05:24;;;;;;;3.95;2.20;;;;;;;7.46;75.38;99891.13;4913809;29;20043;-77
2021/01/20 11:07:49;;;;;;;6.97;2.63;;;;;;;7.48;74.76;99890.03;4898297;29;20043;-79
2021/01/20 11:10:15;;;;;;;5.90;2.33;;;;;;;7.52;74.60;99885.34;4941863;29;20019;-78
2021/01/20 11:12:41;;;;;;;3.85;2.28;;;;;;;7.67;74.32;99889.06;4938096;28;20033;-76
2021/01/20 11:15:07;;;;;;;2.97;2.15;;;;;;;7.82;74.75;99886.78;4925129;29;20129;-78
2021/01/20 11:17:32;;;;;;;3.92;2.03;;;;;;;7.89;74.62;99898.25;4918220;29;20032;-77
2021/01/20 11:19:58;;;;;;;6.30;2.30;;;;;;;7.87;73.12;99891.53;4940101;29;20394;-79
2021/01/20 11:22:23;;;;;;;6.32;2.47;;;;;;;7.84;73.76;99891.84;4931401;29;20043;-78
2021/01/20 11:24:58;;;;;;;3.67;2.22;;;;;;;7.92;73.64;99886.69;4949224;28;20031;-78
2021/01/20 11:27:23;;;;;;;2.72;2.08;;;;;;;7.97;73.94;99898.31;4952418;29;20035;-78
2021/01/20 11:29:49;;;;;;;4.32;2.15;;;;;;;7.90;74.50;99893.84;4939893;29;20032;-77
2021/01/20 11:32:14;;;;;;;3.33;2.13;;;;;;;7.93;74.16;99883.09;4899766;29;20079;-78
2021/01/20 11:34:41;;;;;;;6.00;1.88;;;;;;;7.98;73.39;99876.44;4925333;29;20103;-79
2021/01/20 11:37:07;;;;;;;4.00;2.15;;;;;;;7.94;73.93;99876.91;4915785;29;20044;-77
2021/01/20 11:39:36;;;;;;;2.75;2.00;;;;;;;7.99;74.00;99880.72;4898010;29;20035;-78